sensor_id;sensor_type;location;lat;lon;timestamp;P1;durP1;ratioP1;P2;durP2;ratioP2
78072;SDS011;67281;48.770;11.440;2023-11-18T00:01:34;1.40;;;1.30;;
78072;SDS011;67281;48.770;11.440;2023-11-18T00:04:02;1.70;;;1.40;;
78072;SDS011;67281;48.770;11.440;2023-11-18T00:06:28;1.67;;;1.30;;
78072;SDS011;67281;48.770;11.440;2023-11-18T00:08:55;2.10;;;1.37;;
78072;SDS011;67281;48.770;11.440;2023-11-18T00:11:22;1.97;;;1.30;;
78072;SDS011;67281;48.770;11.440;2023-11-18T00:13:51;3.50;;;1.70;;
78072;SDS011;67281;48.770;11.440;2023-11-18T00:16:17;5.17;;;3.07;;
78072;SDS011;67281;48.770;11.440;2023-11-18T00:18:45;5.37;;;3.80;;
78072;SDS011;67281;48.770;11.440;2023-11-18T00:21:12;7.53;;;4.33;;
78072;SDS011;67281;48.770;11.440;2023-11-18T00:23:39;9.00;;;5.57;;
78072;SDS011;67281;48.770;11.440;2023-11-18T00:26:06;8.07;;;5.50;;
78072;SDS011;67281;48.770;11.440;2023-11-18T00:28:33;9.00;;;6.40;;
78072;SDS011;67281;48.770;11.440;2023-11-18T00:31:00;8.67;;;6.00;;
78072;SDS011;67281;48.770;11.440;2023-11-18T00:33:27;8.83;;;6.30;;
78072;SDS011;67281;48.770;11.440;2023-11-18T00:35:54;8.87;;;6.20;;
78072;SDS011;67281;48.770;11.440;2023-11-18T00:38:21;8.33;;;6.33;;
78072;SDS011;67281;48.770;11.440;2023-11-18T00:40:48;9.27;;;6.80;;
78072;SDS011;67281;48.770;11.440;2023-11-18T00:43:14;10.83;;;7.20;;
78072;SDS011;67281;48.770;11.440;2023-11-18T00:45:41;9.27;;;6.90;;
78072;SDS011;67281;48.770;11.440;2023-11-18T00:48:09;9.97;;;7.37;;
78072;SDS011;67281;48.770;11.440;2023-11-18T00:50:36;14.07;;;7.63;;
78072;SDS011;67281;48.770;11.440;2023-11-18T00:53:03;11.70;;;7.60;;
78072;SDS011;67281;48.770;11.440;2023-11-18T00:55:32;11.07;;;6.90;;
78072;SDS011;67281;48.770;11.440;2023-11-18T00:57:58;10.27;;;7.13;;
78072;SDS011;67281;48.770;11.440;2023-11-18T01:00:26;10.73;;;6.93;;
78072;SDS011;67281;48.770;11.440;2023-11-18T01:02:53;11.87;;;7.63;;
78072;SDS011;67281;48.770;11.440;2023-11-18T01:05:21;10.03;;;6.60;;
78072;SDS011;67281;48.770;11.440;2023-11-18T01:07:48;11.37;;;6.87;;
78072;SDS011;67281;48.770;11.440;2023-11-18T01:10:16;12.13;;;7.33;;
78072;SDS011;67281;48.770;11.440;2023-11-18T01:12:43;12.20;;;7.17;;
78072;SDS011;67281;48.770;11.440;2023-11-18T01:15:11;10.23;;;7.50;;
78072;SDS011;67281;48.770;11.440;2023-11-18T01:17:39;10.93;;;7.50;;
78072;SDS011;67281;48.770;11.440;2023-11-18T01:20:06;10.70;;;7.40;;
78072;SDS011;67281;48.770;11.440;2023-11-18T01:22:37;10.47;;;7.33;;
78072;SDS011;67281;48.770;11.440;2023-11-18T01:25:05;12.87;;;7.87;;
78072;SDS011;67281;48.770;11.440;2023-11-18T01:27:32;11.83;;;7.93;;
78072;SDS011;67281;48.770;11.440;2023-11-18T01:30:02;10.83;;;8.10;;
78072;SDS011;67281;48.770;11.440;2023-11-18T01:32:30;10.43;;;7.53;;
78072;SDS011;67281;48.770;11.440;2023-11-18T01:34:58;13.30;;;7.47;;
78072;SDS011;67281;48.770;11.440;2023-11-18T01:37:25;9.90;;;7.00;;
78072;SDS011;67281;48.770;11.440;2023-11-18T01:39:52;9.83;;;7.20;;
78072;SDS011;67281;48.770;11.440;2023-11-18T01:42:19;13.87;;;7.37;;
78072;SDS011;67281;48.770;11.440;2023-11-18T01:44:46;9.10;;;7.00;;
78072;SDS011;67281;48.770;11.440;2023-11-18T01:47:12;8.60;;;6.67;;
78072;SDS011;67281;48.770;11.440;2023-11-18T01:49:40;11.57;;;7.30;;
78072;SDS011;67281;48.770;11.440;2023-11-18T01:52:08;9.27;;;6.60;;
78072;SDS011;67281;48.770;11.440;2023-11-18T01:54:36;12.03;;;7.00;;
78072;SDS011;67281;48.770;11.440;2023-11-18T01:57:04;10.07;;;7.40;;
78072;SDS011;67281;48.770;11.440;2023-11-18T01:59:36;11.33;;;7.03;;
78072;SDS011;67281;48.770;11.440;2023-11-18T02:02:04;11.27;;;7.57;;
78072;SDS011;67281;48.770;11.440;2023-11-18T02:04:31;11.30;;;7.10;;
78072;SDS011;67281;48.770;11.440;2023-11-18T02:06:58;10.60;;;7.80;;
78072;SDS011;67281;48.770;11.440;2023-11-18T02:09:29;9.57;;;7.50;;
78072;SDS011;67281;48.770;11.440;2023-11-18T02:14:27;13.43;;;7.97;;
78072;SDS011;67281;48.770;11.440;2023-11-18T02:16:55;11.00;;;7.73;;
78072;SDS011;67281;48.770;11.440;2023-11-18T02:19:27;10.47;;;8.20;;
78072;SDS011;67281;48.770;11.440;2023-11-18T02:21:56;11.93;;;8.00;;
78072;SDS011;67281;48.770;11.440;2023-11-18T02:24:24;12.90;;;7.77;;
78072;SDS011;67281;48.770;11.440;2023-11-18T02:26:57;12.83;;;8.27;;
78072;SDS011;67281;48.770;11.440;2023-11-18T02:29:25;11.40;;;8.20;;
78072;SDS011;67281;48.770;11.440;2023-11-18T02:31:56;10.83;;;7.40;;
78072;SDS011;67281;48.770;11.440;2023-11-18T02:34:30;12.93;;;7.27;;
78072;SDS011;67281;48.770;11.440;2023-11-18T02:37:01;10.13;;;7.17;;
78072;SDS011;67281;48.770;11.440;2023-11-18T02:39:37;10.73;;;7.37;;
78072;SDS011;67281;48.770;11.440;2023-11-18T02:42:07;10.07;;;7.87;;
78072;SDS011;67281;48.770;11.440;2023-11-18T02:44:34;11.57;;;7.73;;
78072;SDS011;67281;48.770;11.440;2023-11-18T02:47:03;12.33;;;7.60;;
78072;SDS011;67281;48.770;11.440;2023-11-18T02:49:36;11.53;;;7.27;;
78072;SDS011;67281;48.770;11.440;2023-11-18T02:52:03;10.70;;;7.07;;
78072;SDS011;67281;48.770;11.440;2023-11-18T02:54:31;9.77;;;7.33;;
78072;SDS011;67281;48.770;11.440;2023-11-18T02:56:58;10.17;;;6.87;;
78072;SDS011;67281;48.770;11.440;2023-11-18T02:59:25;8.53;;;6.57;;
78072;SDS011;67281;48.770;11.440;2023-11-18T03:01:53;11.90;;;6.87;;
78072;SDS011;67281;48.770;11.440;2023-11-18T03:04:21;10.13;;;7.17;;
78072;SDS011;67281;48.770;11.440;2023-11-18T03:06:50;13.20;;;6.70;;
78072;SDS011;67281;48.770;11.440;2023-11-18T03:09:17;11.17;;;6.43;;
78072;SDS011;67281;48.770;11.440;2023-11-18T03:11:45;10.43;;;6.83;;
78072;SDS011;67281;48.770;11.440;2023-11-18T03:14:12;10.03;;;6.83;;
78072;SDS011;67281;48.770;11.440;2023-11-18T03:16:39;8.10;;;5.87;;
78072;SDS011;67281;48.770;11.440;2023-11-18T03:19:06;10.33;;;6.17;;
78072;SDS011;67281;48.770;11.440;2023-11-18T03:21:35;8.80;;;6.37;;
78072;SDS011;67281;48.770;11.440;2023-11-18T03:24:02;9.93;;;6.50;;
78072;SDS011;67281;48.770;11.440;2023-11-18T03:26:29;10.20;;;6.60;;
78072;SDS011;67281;48.770;11.440;2023-11-18T03:28:58;9.47;;;6.57;;
78072;SDS011;67281;48.770;11.440;2023-11-18T03:31:25;11.27;;;6.60;;
78072;SDS011;67281;48.770;11.440;2023-11-18T03:33:53;11.97;;;7.30;;
78072;SDS011;67281;48.770;11.440;2023-11-18T03:36:19;13.00;;;8.07;;
78072;SDS011;67281;48.770;11.440;2023-11-18T03:38:47;12.63;;;8.10;;
78072;SDS011;67281;48.770;11.440;2023-11-18T03:41:15;13.43;;;8.57;;
78072;SDS011;67281;48.770;11.440;2023-11-18T03:43:42;10.90;;;7.63;;
78072;SDS011;67281;48.770;11.440;2023-11-18T03:46:08;12.03;;;8.43;;
78072;SDS011;67281;48.770;11.440;2023-11-18T03:48:37;10.03;;;7.70;;
78072;SDS011;67281;48.770;11.440;2023-11-18T03:51:04;9.57;;;7.20;;
78072;SDS011;67281;48.770;11.440;2023-11-18T03:53:31;9.87;;;7.63;;
78072;SDS011;67281;48.770;11.440;2023-11-18T03:56:00;14.03;;;8.20;;
78072;SDS011;67281;48.770;11.440;2023-11-18T03:58:28;10.40;;;8.00;;
78072;SDS011;67281;48.770;11.440;2023-11-18T04:00:55;12.10;;;8.73;;
78072;SDS011;67281;48.770;11.440;2023-11-18T04:03:23;11.57;;;8.27;;
78072;SDS011;67281;48.770;11.440;2023-11-18T04:05:50;12.03;;;8.93;;
78072;SDS011;67281;48.770;11.440;2023-11-18T04:08:17;14.17;;;9.17;;
78072;SDS011;67281;48.770;11.440;2023-11-18T04:10:44;12.67;;;8.53;;
78072;SDS011;67281;48.770;11.440;2023-11-18T04:13:10;11.63;;;8.83;;
78072;SDS011;67281;48.770;11.440;2023-11-18T04:15:37;11.13;;;8.10;;
78072;SDS011;67281;48.770;11.440;2023-11-18T04:18:04;11.67;;;8.90;;
78072;SDS011;67281;48.770;11.440;2023-11-18T04:20:32;11.73;;;8.50;;
78072;SDS011;67281;48.770;11.440;2023-11-18T04:22:59;11.07;;;8.10;;
78072;SDS011;67281;48.770;11.440;2023-11-18T04:25:26;13.33;;;7.93;;
78072;SDS011;67281;48.770;11.440;2023-11-18T04:27:53;10.80;;;8.23;;
78072;SDS011;67281;48.770;11.440;2023-11-18T04:30:20;12.00;;;8.20;;
78072;SDS011;67281;48.770;11.440;2023-11-18T04:32:47;14.37;;;9.30;;
78072;SDS011;67281;48.770;11.440;2023-11-18T04:35:14;13.13;;;8.00;;
78072;SDS011;67281;48.770;11.440;2023-11-18T04:37:42;12.40;;;8.47;;
78072;SDS011;67281;48.770;11.440;2023-11-18T04:40:10;14.80;;;8.33;;
78072;SDS011;67281;48.770;11.440;2023-11-18T04:42:38;12.53;;;8.77;;
78072;SDS011;67281;48.770;11.440;2023-11-18T04:45:06;13.70;;;9.07;;
78072;SDS011;67281;48.770;11.440;2023-11-18T04:47:36;12.30;;;8.97;;
78072;SDS011;67281;48.770;11.440;2023-11-18T04:50:05;12.40;;;8.47;;
78072;SDS011;67281;48.770;11.440;2023-11-18T04:52:32;12.63;;;8.30;;
78072;SDS011;67281;48.770;11.440;2023-11-18T04:55:02;12.53;;;8.60;;
78072;SDS011;67281;48.770;11.440;2023-11-18T04:57:32;13.00;;;8.73;;
78072;SDS011;67281;48.770;11.440;2023-11-18T04:59:59;10.87;;;8.53;;
78072;SDS011;67281;48.770;11.440;2023-11-18T05:02:37;11.73;;;8.53;;
78072;SDS011;67281;48.770;11.440;2023-11-18T05:05:04;11.43;;;8.57;;
78072;SDS011;67281;48.770;11.440;2023-11-18T05:07:34;12.43;;;8.63;;
78072;SDS011;67281;48.770;11.440;2023-11-18T05:10:02;12.50;;;8.80;;
78072;SDS011;67281;48.770;11.440;2023-11-18T05:12:32;11.27;;;7.60;;
78072;SDS011;67281;48.770;11.440;2023-11-18T05:14:59;11.47;;;7.70;;
78072;SDS011;67281;48.770;11.440;2023-11-18T05:17:26;14.13;;;8.33;;
78072;SDS011;67281;48.770;11.440;2023-11-18T05:19:53;12.93;;;8.20;;
78072;SDS011;67281;48.770;11.440;2023-11-18T05:22:20;10.67;;;7.30;;
78072;SDS011;67281;48.770;11.440;2023-11-18T05:24:47;9.27;;;6.60;;
78072;SDS011;67281;48.770;11.440;2023-11-18T05:27:14;9.63;;;6.63;;
78072;SDS011;67281;48.770;11.440;2023-11-18T05:29:41;8.87;;;6.70;;
78072;SDS011;67281;48.770;11.440;2023-11-18T05:32:08;9.90;;;6.57;;
78072;SDS011;67281;48.770;11.440;2023-11-18T05:34:35;7.97;;;5.87;;
78072;SDS011;67281;48.770;11.440;2023-11-18T05:37:02;9.00;;;6.30;;
78072;SDS011;67281;48.770;11.440;2023-11-18T05:39:29;8.67;;;6.17;;
78072;SDS011;67281;48.770;11.440;2023-11-18T05:41:57;8.83;;;6.70;;
78072;SDS011;67281;48.770;11.440;2023-11-18T05:44:24;9.93;;;7.30;;
78072;SDS011;67281;48.770;11.440;2023-11-18T05:46:57;13.10;;;10.00;;
78072;SDS011;67281;48.770;11.440;2023-11-18T05:49:24;13.73;;;10.67;;
78072;SDS011;67281;48.770;11.440;2023-11-18T05:51:51;12.87;;;10.07;;
78072;SDS011;67281;48.770;11.440;2023-11-18T05:54:18;13.97;;;10.23;;
78072;SDS011;67281;48.770;11.440;2023-11-18T05:56:45;14.97;;;11.37;;
78072;SDS011;67281;48.770;11.440;2023-11-18T05:59:12;14.80;;;11.73;;
78072;SDS011;67281;48.770;11.440;2023-11-18T06:01:40;13.53;;;10.67;;
78072;SDS011;67281;48.770;11.440;2023-11-18T06:04:07;13.83;;;10.80;;
78072;SDS011;67281;48.770;11.440;2023-11-18T06:06:37;12.80;;;10.50;;
78072;SDS011;67281;48.770;11.440;2023-11-18T06:09:04;14.53;;;10.80;;
78072;SDS011;67281;48.770;11.440;2023-11-18T06:11:35;14.47;;;11.63;;
78072;SDS011;67281;48.770;11.440;2023-11-18T06:14:03;14.87;;;11.63;;
78072;SDS011;67281;48.770;11.440;2023-11-18T06:16:30;15.90;;;12.53;;
78072;SDS011;67281;48.770;11.440;2023-11-18T06:18:57;14.30;;;12.17;;
78072;SDS011;67281;48.770;11.440;2023-11-18T06:21:26;15.00;;;11.93;;
78072;SDS011;67281;48.770;11.440;2023-11-18T06:24:00;15.93;;;11.17;;
78072;SDS011;67281;48.770;11.440;2023-11-18T06:26:30;15.00;;;12.13;;
78072;SDS011;67281;48.770;11.440;2023-11-18T06:28:57;13.03;;;11.60;;
78072;SDS011;67281;48.770;11.440;2023-11-18T06:31:24;13.43;;;11.07;;
78072;SDS011;67281;48.770;11.440;2023-11-18T06:33:51;13.87;;;10.10;;
78072;SDS011;67281;48.770;11.440;2023-11-18T06:36:19;14.33;;;11.03;;
78072;SDS011;67281;48.770;11.440;2023-11-18T06:38:49;13.97;;;11.93;;
78072;SDS011;67281;48.770;11.440;2023-11-18T06:41:17;14.77;;;12.20;;
78072;SDS011;67281;48.770;11.440;2023-11-18T06:43:50;15.37;;;13.03;;
78072;SDS011;67281;48.770;11.440;2023-11-18T06:46:25;13.83;;;11.30;;
78072;SDS011;67281;48.770;11.440;2023-11-18T06:49:00;16.60;;;13.50;;
78072;SDS011;67281;48.770;11.440;2023-11-18T06:51:34;14.47;;;11.87;;
78072;SDS011;67281;48.770;11.440;2023-11-18T06:54:05;17.27;;;13.40;;
78072;SDS011;67281;48.770;11.440;2023-11-18T06:56:38;16.63;;;12.57;;
78072;SDS011;67281;48.770;11.440;2023-11-18T06:59:13;16.43;;;13.97;;
78072;SDS011;67281;48.770;11.440;2023-11-18T07:01:42;15.60;;;11.90;;
78072;SDS011;67281;48.770;11.440;2023-11-18T07:04:12;14.57;;;11.77;;
78072;SDS011;67281;48.770;11.440;2023-11-18T07:06:41;13.97;;;11.70;;
78072;SDS011;67281;48.770;11.440;2023-11-18T07:09:10;14.70;;;12.10;;
78072;SDS011;67281;48.770;11.440;2023-11-18T07:11:45;16.70;;;12.70;;
78072;SDS011;67281;48.770;11.440;2023-11-18T07:14:14;14.63;;;11.40;;
78072;SDS011;67281;48.770;11.440;2023-11-18T07:16:44;16.63;;;12.93;;
78072;SDS011;67281;48.770;11.440;2023-11-18T07:19:11;16.17;;;13.33;;
78072;SDS011;67281;48.770;11.440;2023-11-18T07:21:48;15.37;;;13.17;;
78072;SDS011;67281;48.770;11.440;2023-11-18T07:24:16;18.50;;;13.90;;
78072;SDS011;67281;48.770;11.440;2023-11-18T07:26:44;17.20;;;14.77;;
78072;SDS011;67281;48.770;11.440;2023-11-18T07:29:12;17.70;;;14.93;;
78072;SDS011;67281;48.770;11.440;2023-11-18T07:31:39;17.00;;;14.23;;
78072;SDS011;67281;48.770;11.440;2023-11-18T07:34:05;18.83;;;14.07;;
78072;SDS011;67281;48.770;11.440;2023-11-18T07:36:33;16.40;;;13.07;;
78072;SDS011;67281;48.770;11.440;2023-11-18T07:39:00;15.97;;;12.37;;
78072;SDS011;67281;48.770;11.440;2023-11-18T07:41:33;17.50;;;14.23;;
78072;SDS011;67281;48.770;11.440;2023-11-18T07:44:00;16.00;;;14.10;;
78072;SDS011;67281;48.770;11.440;2023-11-18T07:46:27;15.00;;;12.60;;
78072;SDS011;67281;48.770;11.440;2023-11-18T07:48:58;15.63;;;12.97;;
78072;SDS011;67281;48.770;11.440;2023-11-18T07:51:25;15.10;;;13.00;;
78072;SDS011;67281;48.770;11.440;2023-11-18T07:53:51;16.47;;;12.57;;
78072;SDS011;67281;48.770;11.440;2023-11-18T07:56:19;13.63;;;11.47;;
78072;SDS011;67281;48.770;11.440;2023-11-18T07:58:49;12.60;;;10.80;;
78072;SDS011;67281;48.770;11.440;2023-11-18T08:01:19;13.50;;;10.10;;
78072;SDS011;67281;48.770;11.440;2023-11-18T08:03:48;13.93;;;11.87;;
78072;SDS011;67281;48.770;11.440;2023-11-18T08:06:18;13.33;;;11.07;;
78072;SDS011;67281;48.770;11.440;2023-11-18T08:08:44;12.47;;;9.93;;
78072;SDS011;67281;48.770;11.440;2023-11-18T08:11:12;12.37;;;11.07;;
78072;SDS011;67281;48.770;11.440;2023-11-18T08:13:39;12.20;;;10.37;;
78072;SDS011;67281;48.770;11.440;2023-11-18T08:16:06;12.37;;;10.17;;
78072;SDS011;67281;48.770;11.440;2023-11-18T08:18:35;12.03;;;10.37;;
78072;SDS011;67281;48.770;11.440;2023-11-18T08:21:03;12.90;;;10.20;;
78072;SDS011;67281;48.770;11.440;2023-11-18T08:23:33;14.63;;;9.40;;
78072;SDS011;67281;48.770;11.440;2023-11-18T08:26:00;11.63;;;9.67;;
78072;SDS011;67281;48.770;11.440;2023-11-18T08:28:27;15.77;;;10.87;;
78072;SDS011;67281;48.770;11.440;2023-11-18T08:30:54;11.20;;;8.90;;
78072;SDS011;67281;48.770;11.440;2023-11-18T08:33:21;12.70;;;9.33;;
78072;SDS011;67281;48.770;11.440;2023-11-18T08:35:51;12.20;;;9.60;;
78072;SDS011;67281;48.770;11.440;2023-11-18T08:38:17;10.97;;;8.40;;
78072;SDS011;67281;48.770;11.440;2023-11-18T08:40:46;12.33;;;8.83;;
78072;SDS011;67281;48.770;11.440;2023-11-18T08:43:15;10.77;;;8.50;;
78072;SDS011;67281;48.770;11.440;2023-11-18T08:45:43;10.77;;;9.67;;
78072;SDS011;67281;48.770;11.440;2023-11-18T08:48:11;10.27;;;9.00;;
78072;SDS011;67281;48.770;11.440;2023-11-18T08:50:38;11.33;;;9.40;;
78072;SDS011;67281;48.770;11.440;2023-11-18T08:53:10;10.77;;;9.17;;
78072;SDS011;67281;48.770;11.440;2023-11-18T08:55:39;10.60;;;8.53;;
78072;SDS011;67281;48.770;11.440;2023-11-18T08:58:09;11.53;;;9.20;;
78072;SDS011;67281;48.770;11.440;2023-11-18T09:00:58;12.17;;;10.00;;
78072;SDS011;67281;48.770;11.440;2023-11-18T09:03:33;13.40;;;10.43;;
78072;SDS011;67281;48.770;11.440;2023-11-18T09:06:04;12.40;;;10.27;;
78072;SDS011;67281;48.770;11.440;2023-11-18T09:08:34;13.20;;;10.00;;
78072;SDS011;67281;48.770;11.440;2023-11-18T09:11:03;10.80;;;9.10;;
78072;SDS011;67281;48.770;11.440;2023-11-18T09:13:32;11.87;;;8.93;;
78072;SDS011;67281;48.770;11.440;2023-11-18T09:16:05;10.77;;;8.20;;
78072;SDS011;67281;48.770;11.440;2023-11-18T09:18:36;9.77;;;7.93;;
78072;SDS011;67281;48.770;11.440;2023-11-18T09:21:09;10.20;;;8.07;;
78072;SDS011;67281;48.770;11.440;2023-11-18T09:23:42;9.07;;;6.87;;
78072;SDS011;67281;48.770;11.440;2023-11-18T09:26:10;9.63;;;6.73;;
78072;SDS011;67281;48.770;11.440;2023-11-18T09:28:37;8.93;;;6.77;;
78072;SDS011;67281;48.770;11.440;2023-11-18T09:31:05;8.77;;;5.97;;
78072;SDS011;67281;48.770;11.440;2023-11-18T09:33:33;8.13;;;6.10;;
78072;SDS011;67281;48.770;11.440;2023-11-18T09:36:02;7.50;;;4.50;;
78072;SDS011;67281;48.770;11.440;2023-11-18T09:41:07;7.30;;;4.13;;
78072;SDS011;67281;48.770;11.440;2023-11-18T09:43:38;7.03;;;4.40;;
78072;SDS011;67281;48.770;11.440;2023-11-18T09:46:13;5.97;;;4.70;;
78072;SDS011;67281;48.770;11.440;2023-11-18T09:48:49;7.43;;;5.00;;
78072;SDS011;67281;48.770;11.440;2023-11-18T09:51:20;5.77;;;4.50;;
78072;SDS011;67281;48.770;11.440;2023-11-18T09:53:54;6.83;;;4.77;;
78072;SDS011;67281;48.770;11.440;2023-11-18T09:56:23;8.20;;;5.27;;
78072;SDS011;67281;48.770;11.440;2023-11-18T09:59:10;8.93;;;5.50;;
78072;SDS011;67281;48.770;11.440;2023-11-18T10:01:43;7.27;;;4.57;;
78072;SDS011;67281;48.770;11.440;2023-11-18T10:04:11;8.27;;;5.13;;
78072;SDS011;67281;48.770;11.440;2023-11-18T10:06:40;5.97;;;4.43;;
78072;SDS011;67281;48.770;11.440;2023-11-18T10:09:11;6.83;;;4.63;;
78072;SDS011;67281;48.770;11.440;2023-11-18T10:11:48;6.60;;;4.37;;
78072;SDS011;67281;48.770;11.440;2023-11-18T10:14:16;5.90;;;4.20;;
78072;SDS011;67281;48.770;11.440;2023-11-18T10:16:43;5.27;;;4.10;;
78072;SDS011;67281;48.770;11.440;2023-11-18T10:19:14;5.80;;;3.63;;
78072;SDS011;67281;48.770;11.440;2023-11-18T10:21:45;6.03;;;3.87;;
78072;SDS011;67281;48.770;11.440;2023-11-18T10:24:16;6.10;;;3.77;;
78072;SDS011;67281;48.770;11.440;2023-11-18T10:26:56;5.27;;;4.00;;
78072;SDS011;67281;48.770;11.440;2023-11-18T10:29:24;4.73;;;3.77;;
78072;SDS011;67281;48.770;11.440;2023-11-18T10:32:07;7.20;;;3.90;;
78072;SDS011;67281;48.770;11.440;2023-11-18T10:34:42;6.20;;;4.03;;
78072;SDS011;67281;48.770;11.440;2023-11-18T10:37:09;7.53;;;4.10;;
78072;SDS011;67281;48.770;11.440;2023-11-18T10:39:37;5.20;;;4.30;;
78072;SDS011;67281;48.770;11.440;2023-11-18T10:42:04;5.77;;;3.80;;
78072;SDS011;67281;48.770;11.440;2023-11-18T10:44:31;6.43;;;3.97;;
78072;SDS011;67281;48.770;11.440;2023-11-18T10:46:58;6.00;;;3.90;;
78072;SDS011;67281;48.770;11.440;2023-11-18T10:49:26;4.70;;;3.27;;
78072;SDS011;67281;48.770;11.440;2023-11-18T10:52:04;5.47;;;3.93;;
78072;SDS011;67281;48.770;11.440;2023-11-18T10:54:34;5.20;;;3.50;;
78072;SDS011;67281;48.770;11.440;2023-11-18T10:57:01;6.10;;;3.90;;
78072;SDS011;67281;48.770;11.440;2023-11-18T10:59:34;5.27;;;3.90;;
78072;SDS011;67281;48.770;11.440;2023-11-18T11:02:17;6.37;;;3.93;;
78072;SDS011;67281;48.770;11.440;2023-11-18T11:04:46;5.10;;;3.47;;
78072;SDS011;67281;48.770;11.440;2023-11-18T11:07:12;4.77;;;3.50;;
78072;SDS011;67281;48.770;11.440;2023-11-18T11:09:41;5.30;;;3.10;;
78072;SDS011;67281;48.770;11.440;2023-11-18T11:12:12;4.30;;;3.40;;
78072;SDS011;67281;48.770;11.440;2023-11-18T11:14:50;6.63;;;3.10;;
78072;SDS011;67281;48.770;11.440;2023-11-18T11:17:27;5.43;;;3.20;;
78072;SDS011;67281;48.770;11.440;2023-11-18T11:25:46;6.77;;;3.80;;
78072;SDS011;67281;48.770;11.440;2023-11-18T11:28:42;6.83;;;3.53;;
78072;SDS011;67281;48.770;11.440;2023-11-18T11:31:23;4.67;;;3.70;;
78072;SDS011;67281;48.770;11.440;2023-11-18T11:34:02;5.07;;;3.33;;
78072;SDS011;67281;48.770;11.440;2023-11-18T11:36:35;6.73;;;3.87;;
78072;SDS011;67281;48.770;11.440;2023-11-18T11:39:08;5.63;;;3.80;;
78072;SDS011;67281;48.770;11.440;2023-11-18T11:41:46;6.77;;;3.80;;
78072;SDS011;67281;48.770;11.440;2023-11-18T11:44:17;5.50;;;3.80;;
78072;SDS011;67281;48.770;11.440;2023-11-18T11:46:47;6.23;;;4.10;;
78072;SDS011;67281;48.770;11.440;2023-11-18T11:49:22;5.20;;;4.00;;
78072;SDS011;67281;48.770;11.440;2023-11-18T11:52:11;4.97;;;3.70;;
78072;SDS011;67281;48.770;11.440;2023-11-18T11:54:52;6.43;;;3.90;;
78072;SDS011;67281;48.770;11.440;2023-11-18T11:57:31;5.40;;;3.80;;
78072;SDS011;67281;48.770;11.440;2023-11-18T12:00:08;5.70;;;4.00;;
78072;SDS011;67281;48.770;11.440;2023-11-18T12:02:48;7.97;;;3.87;;
78072;SDS011;67281;48.770;11.440;2023-11-18T12:05:16;4.30;;;3.47;;
78072;SDS011;67281;48.770;11.440;2023-11-18T12:07:52;6.60;;;4.10;;
78072;SDS011;67281;48.770;11.440;2023-11-18T12:10:31;5.97;;;4.10;;
78072;SDS011;67281;48.770;11.440;2023-11-18T12:13:08;5.60;;;4.03;;
78072;SDS011;67281;48.770;11.440;2023-11-18T12:18:21;6.83;;;4.37;;
78072;SDS011;67281;48.770;11.440;2023-11-18T12:20:52;5.07;;;3.70;;
78072;SDS011;67281;48.770;11.440;2023-11-18T12:23:23;5.63;;;4.10;;
78072;SDS011;67281;48.770;11.440;2023-11-18T12:25:52;5.80;;;4.03;;
78072;SDS011;67281;48.770;11.440;2023-11-18T12:30:53;6.20;;;3.67;;
78072;SDS011;67281;48.770;11.440;2023-11-18T12:33:25;4.40;;;3.10;;
78072;SDS011;67281;48.770;11.440;2023-11-18T12:36:03;4.43;;;3.23;;
78072;SDS011;67281;48.770;11.440;2023-11-18T12:41:39;3.53;;;2.90;;
78072;SDS011;67281;48.770;11.440;2023-11-18T12:46:49;4.80;;;3.10;;
78072;SDS011;67281;48.770;11.440;2023-11-18T12:49:17;5.13;;;3.20;;
78072;SDS011;67281;48.770;11.440;2023-11-18T12:51:50;4.10;;;3.10;;
78072;SDS011;67281;48.770;11.440;2023-11-18T12:54:19;5.50;;;3.10;;
78072;SDS011;67281;48.770;11.440;2023-11-18T12:56:51;4.03;;;2.80;;
78072;SDS011;67281;48.770;11.440;2023-11-18T12:59:20;5.17;;;2.90;;
78072;SDS011;67281;48.770;11.440;2023-11-18T13:01:47;3.03;;;2.37;;
78072;SDS011;67281;48.770;11.440;2023-11-18T13:04:24;4.67;;;2.67;;
78072;SDS011;67281;48.770;11.440;2023-11-18T13:06:54;3.60;;;2.10;;
78072;SDS011;67281;48.770;11.440;2023-11-18T13:09:22;2.03;;;1.80;;
78072;SDS011;67281;48.770;11.440;2023-11-18T13:11:53;3.57;;;2.10;;
78072;SDS011;67281;48.770;11.440;2023-11-18T13:14:25;3.47;;;2.10;;
78072;SDS011;67281;48.770;11.440;2023-11-18T13:16:53;3.37;;;2.10;;
78072;SDS011;67281;48.770;11.440;2023-11-18T13:19:26;4.73;;;2.13;;
78072;SDS011;67281;48.770;11.440;2023-11-18T13:21:58;3.37;;;2.17;;
78072;SDS011;67281;48.770;11.440;2023-11-18T13:24:26;4.30;;;2.23;;
78072;SDS011;67281;48.770;11.440;2023-11-18T13:26:54;3.90;;;2.10;;
78072;SDS011;67281;48.770;11.440;2023-11-18T13:29:23;4.03;;;2.20;;
78072;SDS011;67281;48.770;11.440;2023-11-18T13:31:51;3.43;;;2.10;;
78072;SDS011;67281;48.770;11.440;2023-11-18T13:34:18;4.00;;;2.50;;
78072;SDS011;67281;48.770;11.440;2023-11-18T13:36:48;3.37;;;2.50;;
78072;SDS011;67281;48.770;11.440;2023-11-18T13:39:17;4.27;;;2.33;;
78072;SDS011;67281;48.770;11.440;2023-11-18T13:41:48;3.33;;;2.37;;
78072;SDS011;67281;48.770;11.440;2023-11-18T13:44:32;2.77;;;2.17;;
78072;SDS011;67281;48.770;11.440;2023-11-18T13:47:07;4.10;;;2.50;;
78072;SDS011;67281;48.770;11.440;2023-11-18T13:49:38;3.30;;;2.23;;
78072;SDS011;67281;48.770;11.440;2023-11-18T13:52:09;4.70;;;2.40;;
78072;SDS011;67281;48.770;11.440;2023-11-18T13:54:38;3.27;;;2.40;;
78072;SDS011;67281;48.770;11.440;2023-11-18T13:57:05;4.23;;;2.43;;
78072;SDS011;67281;48.770;11.440;2023-11-18T13:59:32;3.47;;;2.37;;
78072;SDS011;67281;48.770;11.440;2023-11-18T14:02:00;3.93;;;2.43;;
78072;SDS011;67281;48.770;11.440;2023-11-18T14:04:31;3.50;;;2.30;;
78072;SDS011;67281;48.770;11.440;2023-11-18T14:07:02;3.57;;;2.17;;
78072;SDS011;67281;48.770;11.440;2023-11-18T14:09:36;4.37;;;2.60;;
78072;SDS011;67281;48.770;11.440;2023-11-18T14:12:15;5.83;;;3.13;;
78072;SDS011;67281;48.770;11.440;2023-11-18T14:14:43;3.33;;;2.43;;
78072;SDS011;67281;48.770;11.440;2023-11-18T14:17:10;3.73;;;2.40;;
78072;SDS011;67281;48.770;11.440;2023-11-18T14:19:38;5.07;;;2.73;;
78072;SDS011;67281;48.770;11.440;2023-11-18T14:22:05;4.47;;;2.97;;
78072;SDS011;67281;48.770;11.440;2023-11-18T14:24:36;4.47;;;2.67;;
78072;SDS011;67281;48.770;11.440;2023-11-18T14:27:03;4.43;;;2.60;;
78072;SDS011;67281;48.770;11.440;2023-11-18T14:29:36;6.70;;;3.23;;
78072;SDS011;67281;48.770;11.440;2023-11-18T14:32:05;3.87;;;2.60;;
78072;SDS011;67281;48.770;11.440;2023-11-18T14:34:35;4.90;;;2.90;;
78072;SDS011;67281;48.770;11.440;2023-11-18T14:37:02;6.33;;;2.83;;
78072;SDS011;67281;48.770;11.440;2023-11-18T14:39:33;4.13;;;2.70;;
78072;SDS011;67281;48.770;11.440;2023-11-18T14:42:02;5.40;;;2.90;;
78072;SDS011;67281;48.770;11.440;2023-11-18T14:44:30;4.47;;;2.50;;
78072;SDS011;67281;48.770;11.440;2023-11-18T14:46:57;4.77;;;2.80;;
78072;SDS011;67281;48.770;11.440;2023-11-18T14:49:25;4.47;;;2.73;;
78072;SDS011;67281;48.770;11.440;2023-11-18T14:51:52;4.90;;;2.80;;
78072;SDS011;67281;48.770;11.440;2023-11-18T14:54:19;5.73;;;2.80;;
78072;SDS011;67281;48.770;11.440;2023-11-18T14:56:45;5.13;;;2.73;;
78072;SDS011;67281;48.770;11.440;2023-11-18T14:59:15;5.17;;;2.70;;
78072;SDS011;67281;48.770;11.440;2023-11-18T15:01:42;7.10;;;3.10;;